Anton, TX (79313)

12:54 PM CST on February 12, 2016 (GMT -0600)
WT_Meso | | Change Station
CLOSE
Current Station
Personal Weather Station
Location: Anton, TX
Elevation: 3404 ft
Nearby Weather Stations

Elev 3404 ft 33.73 °N, 102.19 °W | Updated 39 minutes ago

Partly Cloudy
Partly Cloudy
63 °F
Feels Like 63 °F
N
7
Wind Variable Wind from ESE
Gusts 11.0 mph

Today
High -- | Low -- °F
--% Chance of Precip.
Yesterday
High -- | Low -- °F
Precip. -- in
Pressure 30.28 in
Visibility 10.0 miles
Clouds Clear
Dew Point 30 °F
Humidity 28%
Rainfall in
Snow Depth Not available.
7:36 AM 6:29 PM
Waxing Crescent, 22% visible
METAR KLBB 121753Z 11005KT 10SM CLR 17/M02 A3033 RMK AO2 SLP252 T01721022 10178 21022 50012
Pressure 30.28 in
Visibility 10.0 miles
Clouds Clear
Dew Point 30 °F
Humidity 28%
Rainfall in
Snow Depth Not available.
7:36 AM 6:29 PM
Waxing Crescent, 22% visible
METAR KLBB 121753Z 11005KT 10SM CLR 17/M02 A3033 RMK AO2 SLP252 T01721022 10178 21022 50012

10-Day Weather Forecast

Almanac

Astronomy

Feb. 12, 2016 Rise Set
Actual Time
Civil Twilight
Nautical Twilight
Astronomical Twilight
Moon
Length of Visible Light
Length of Day
Tomorrow will be .
, % of the Moon is Illuminated

Today's Extremes

State Highs State Lows

Community

WunderPhotos

Upload Photos

1,892,369 photos uploaded!

WunderBlog® & News

Nearby

Air Quality

  Air Quality AQ Index Pollutant
Not available.

Snow Depth

Station Depth Elevation

Earthquake Activity

City Distance Mag. Time & Date
Minimum magnitude displayed is 2.5.

Coastal Water Temperatures

Place Temperature

Stations

Nearby Weather Stations

Station Location Temp. Windchill Dew Point Humidity Wind Precip. Elev Updated Type
                   

Watches & Warnings

There are currently no watches in effect.